createdAt,value
2018-07-27T00:01:18.164Z,51.77
2018-07-27T00:03:46.747Z,52.27
2018-07-27T00:06:15.416Z,51.16
2018-07-27T00:08:44.060Z,51.00
2018-07-27T00:11:12.745Z,50.23
2018-07-27T00:13:41.442Z,50.57
2018-07-27T00:16:10.184Z,50.63
2018-07-27T00:18:38.796Z,50.53
2018-07-27T00:21:07.456Z,51.30
2018-07-27T00:23:36.166Z,50.89
2018-07-27T00:26:05.537Z,51.55
2018-07-27T00:28:34.168Z,51.85
2018-07-27T00:31:03.136Z,51.92
2018-07-27T00:33:31.759Z,51.59
2018-07-27T00:36:00.575Z,50.90
2018-07-27T00:38:29.191Z,51.19
2018-07-27T00:40:57.783Z,51.14
2018-07-27T00:43:26.358Z,51.03
2018-07-27T00:45:54.949Z,51.86
2018-07-27T00:48:24.546Z,51.87
2018-07-27T00:50:53.143Z,51.77
2018-07-27T00:53:21.788Z,51.57
2018-07-27T00:55:50.469Z,51.75
2018-07-27T00:58:19.191Z,51.83
2018-07-27T01:00:47.880Z,51.11
2018-07-27T01:03:17.165Z,51.69
2018-07-27T01:05:45.876Z,52.81
2018-07-27T01:08:15.480Z,53.43
2018-07-27T01:10:44.217Z,53.48
2018-07-27T01:13:12.934Z,53.17
2018-07-27T01:15:41.868Z,53.00
2018-07-27T01:18:10.965Z,53.60
2018-07-27T01:20:40.767Z,54.19
2018-07-27T01:23:09.400Z,53.40
2018-07-27T01:25:38.600Z,53.07
2018-07-27T01:28:07.558Z,52.92
2018-07-27T01:30:36.905Z,53.02
2018-07-27T01:33:05.899Z,53.00
2018-07-27T01:35:34.598Z,53.18
2018-07-27T01:38:03.272Z,53.40
2018-07-27T01:40:31.982Z,53.30
2018-07-27T01:43:00.597Z,53.14
2018-07-27T01:45:29.271Z,53.87
2018-07-27T01:47:57.813Z,54.09
2018-07-27T01:50:26.447Z,54.36
2018-07-27T01:52:55.228Z,53.96
2018-07-27T01:55:24.317Z,53.67
2018-07-27T01:57:53.977Z,53.67
2018-07-27T02:00:22.991Z,53.92
2018-07-27T02:02:51.721Z,54.35
2018-07-27T02:05:20.582Z,54.39
2018-07-27T02:07:49.205Z,55.20
2018-07-27T02:10:17.838Z,55.32
2018-07-27T02:12:47.314Z,56.07
2018-07-27T02:15:16.951Z,55.59
2018-07-27T02:17:48.009Z,56.13
2018-07-27T02:20:16.818Z,56.08
2018-07-27T02:22:45.512Z,55.87
2018-07-27T02:25:14.169Z,56.15
2018-07-27T02:27:42.766Z,56.28
2018-07-27T02:30:11.696Z,56.03
2018-07-27T02:32:40.804Z,55.61
2018-07-27T02:35:10.391Z,55.70
2018-07-27T02:37:39.941Z,56.48
2018-07-27T02:40:08.564Z,56.48
2018-07-27T02:42:37.818Z,57.00
2018-07-27T02:45:06.896Z,57.26
2018-07-27T02:47:35.461Z,57.34
2018-07-27T02:50:04.653Z,57.92
2018-07-27T02:52:33.292Z,58.57
2018-07-27T02:55:01.889Z,58.78
2018-07-27T02:57:31.334Z,57.96
2018-07-27T03:00:00.268Z,57.61
2018-07-27T03:02:28.882Z,58.26
2018-07-27T03:04:57.726Z,60.18
2018-07-27T03:07:26.416Z,58.84
2018-07-27T03:09:55.036Z,59.26
2018-07-27T03:12:23.683Z,60.83
2018-07-27T03:14:52.378Z,59.93
2018-07-27T03:17:21.085Z,59.42
2018-07-27T03:19:49.710Z,59.27
2018-07-27T03:22:18.849Z,59.97
2018-07-27T03:24:48.333Z,59.79
2018-07-27T03:27:16.958Z,59.36
2018-07-27T03:29:45.569Z,59.88
2018-07-27T03:32:14.925Z,59.66
2018-07-27T03:34:43.626Z,58.88
2018-07-27T03:37:12.528Z,58.52
2018-07-27T03:39:41.152Z,58.92
2018-07-27T03:42:10.415Z,58.15
2018-07-27T03:44:38.948Z,58.13
2018-07-27T03:47:07.609Z,57.89
2018-07-27T03:49:37.544Z,57.87
2018-07-27T03:52:06.125Z,58.42
2018-07-27T03:54:34.810Z,58.62
2018-07-27T03:57:03.812Z,58.58
2018-07-27T03:59:33.302Z,58.67
2018-07-27T04:02:02.023Z,58.30
2018-07-27T04:04:30.661Z,59.00
2018-07-27T04:06:59.323Z,58.90
2018-07-27T04:09:28.857Z,58.82
2018-07-27T04:11:57.466Z,59.24
2018-07-27T04:14:26.332Z,59.90
2018-07-27T04:16:55.008Z,59.51
2018-07-27T04:19:24.379Z,59.40
2018-07-27T04:21:53.097Z,59.14
2018-07-27T04:24:21.688Z,58.71
2018-07-27T04:26:50.687Z,59.35
2018-07-27T04:29:19.332Z,58.64
2018-07-27T04:31:48.691Z,58.81
2018-07-27T04:34:17.566Z,59.38
2018-07-27T04:36:46.605Z,59.17
2018-07-27T04:39:16.102Z,59.10
2018-07-27T04:41:45.063Z,59.45
2018-07-27T04:44:14.400Z,59.18
2018-07-27T04:46:43.121Z,59.03
2018-07-27T04:49:11.738Z,59.28
2018-07-27T04:51:40.472Z,59.53
2018-07-27T04:54:09.109Z,59.42
2018-07-27T04:56:37.842Z,59.16
2018-07-27T04:59:11.175Z,58.54
2018-07-27T05:01:39.781Z,58.67
2018-07-27T05:04:08.548Z,58.99
2018-07-27T05:06:37.591Z,58.96
2018-07-27T05:09:13.186Z,59.12
2018-07-27T05:11:42.219Z,59.41
2018-07-27T05:14:10.815Z,59.81
2018-07-27T05:16:39.420Z,60.10
2018-07-27T05:19:08.027Z,59.79
2018-07-27T05:21:37.020Z,59.55
2018-07-27T05:24:05.919Z,59.71
2018-07-27T05:26:34.610Z,59.57
2018-07-27T05:29:03.303Z,59.34
2018-07-27T05:31:33.150Z,58.95
2018-07-27T05:34:01.818Z,58.90
2018-07-27T05:36:30.466Z,58.39
2018-07-27T05:38:59.520Z,58.18
2018-07-27T05:41:28.241Z,58.14
2018-07-27T05:43:56.862Z,57.30
2018-07-27T05:46:25.582Z,57.30
2018-07-27T05:48:54.257Z,56.50
2018-07-27T05:51:22.859Z,56.06
2018-07-27T05:53:51.692Z,56.16
2018-07-27T05:56:20.330Z,56.07
2018-07-27T05:58:49.040Z,56.75
2018-07-27T06:01:17.749Z,56.59
2018-07-27T06:03:46.294Z,56.51
2018-07-27T06:06:15.863Z,55.84
2018-07-27T06:08:44.699Z,56.34
2018-07-27T06:11:13.646Z,55.99
2018-07-27T06:13:42.264Z,55.98
2018-07-27T06:16:11.204Z,55.69
2018-07-27T06:18:39.849Z,54.84
2018-07-27T06:21:08.767Z,54.33
2018-07-27T06:23:37.779Z,54.47
2018-07-27T06:26:07.101Z,54.55
2018-07-27T06:28:35.742Z,54.78
2018-07-27T06:31:05.166Z,53.01
2018-07-27T06:33:33.841Z,53.25
2018-07-27T06:36:02.788Z,52.59
2018-07-27T06:38:31.441Z,52.02
2018-07-27T06:41:00.063Z,50.84
2018-07-27T06:43:28.983Z,50.75
2018-07-27T06:45:57.675Z,50.44
2018-07-27T06:48:26.690Z,50.30
2018-07-27T06:50:55.410Z,49.31
2018-07-27T06:53:24.371Z,49.09
2018-07-27T06:55:53.021Z,49.34
2018-07-27T06:58:21.653Z,49.50
2018-07-27T07:00:50.399Z,48.55
2018-07-27T07:03:19.484Z,49.21
2018-07-27T07:05:48.140Z,48.95
2018-07-27T07:08:16.771Z,48.24
2018-07-27T07:10:45.772Z,49.11
2018-07-27T07:13:14.426Z,47.84
2018-07-27T07:15:43.123Z,47.75
2018-07-27T07:18:11.823Z,49.10
2018-07-27T07:20:40.525Z,48.74
2018-07-27T07:23:09.216Z,49.28
2018-07-27T07:25:38.064Z,48.56
2018-07-27T07:28:06.774Z,48.31
2018-07-27T07:30:36.039Z,47.97
2018-07-27T07:33:04.739Z,47.38
2018-07-27T07:35:33.633Z,47.37
2018-07-27T07:38:02.366Z,47.21
2018-07-27T07:40:31.008Z,46.41
2018-07-27T07:42:59.625Z,46.74
2018-07-27T07:45:28.346Z,46.66
2018-07-27T07:47:57.032Z,45.86
2018-07-27T07:50:25.732Z,46.05
2018-07-27T07:52:54.387Z,45.20
2018-07-27T07:55:23.060Z,45.21
2018-07-27T07:57:51.815Z,45.17
2018-07-27T08:00:20.451Z,44.67
2018-07-27T08:02:49.088Z,45.73
2018-07-27T08:05:17.674Z,44.75
2018-07-27T08:07:46.927Z,44.88
2018-07-27T08:10:15.616Z,43.82
2018-07-27T08:12:44.215Z,43.63
2018-07-27T08:15:13.482Z,43.31
2018-07-27T08:17:42.233Z,43.50
2018-07-27T08:20:11.494Z,43.25
2018-07-27T08:22:40.210Z,42.35
2018-07-27T08:25:08.968Z,43.07
2018-07-27T08:27:37.593Z,42.46
2018-07-27T08:30:06.187Z,42.24
2018-07-27T08:32:34.820Z,40.59
2018-07-27T08:35:03.750Z,41.25
2018-07-27T08:37:32.531Z,40.83
2018-07-27T08:40:01.254Z,41.00
2018-07-27T08:42:30.409Z,40.79
2018-07-27T08:44:59.157Z,41.30
2018-07-27T08:47:27.941Z,40.52
2018-07-27T08:49:56.590Z,40.62
2018-07-27T08:52:25.284Z,40.75
2018-07-27T08:54:53.991Z,41.10
2018-07-27T08:57:22.649Z,41.03
2018-07-27T08:59:51.843Z,40.23
2018-07-27T09:02:20.488Z,39.99
2018-07-27T09:04:49.276Z,39.99
2018-07-27T09:07:17.990Z,39.70
2018-07-27T09:09:46.613Z,38.01
2018-07-27T09:12:15.321Z,37.82
2018-07-27T09:14:43.923Z,38.38
2018-07-27T09:17:12.650Z,37.35
2018-07-27T09:19:41.353Z,36.17
2018-07-27T09:22:10.655Z,37.51
2018-07-27T09:24:39.405Z,37.31
2018-07-27T09:27:08.086Z,36.17
2018-07-27T09:29:36.840Z,36.06
2018-07-27T09:32:05.564Z,36.59
2018-07-27T09:34:34.283Z,37.08
2018-07-27T09:37:02.919Z,36.04
2018-07-27T09:39:31.792Z,36.40
2018-07-27T09:42:00.485Z,35.99
2018-07-27T09:44:29.091Z,35.39
2018-07-27T09:46:57.821Z,34.97
2018-07-27T09:49:26.553Z,35.79
2018-07-27T09:51:55.263Z,34.93
2018-07-27T09:54:23.920Z,35.37
2018-07-27T09:56:52.878Z,33.74
2018-07-27T09:59:21.625Z,34.82
2018-07-27T10:01:50.316Z,33.49
2018-07-27T10:04:18.997Z,32.49
2018-07-27T10:06:47.735Z,33.52
2018-07-27T10:09:16.589Z,33.35
2018-07-27T10:11:45.249Z,33.18
2018-07-27T10:14:13.926Z,33.15
2018-07-27T10:16:42.535Z,32.25
2018-07-27T10:19:11.198Z,33.50
2018-07-27T10:21:39.828Z,33.66
2018-07-27T10:24:08.681Z,34.14
2018-07-27T10:26:37.366Z,34.13
2018-07-27T10:29:06.166Z,34.14
2018-07-27T10:31:34.793Z,35.06
2018-07-27T10:34:03.493Z,34.18
2018-07-27T10:36:32.476Z,34.09
2018-07-27T10:39:01.373Z,32.85
2018-07-27T10:41:30.077Z,33.37
2018-07-27T10:43:59.049Z,33.00
2018-07-27T10:46:27.787Z,32.47
2018-07-27T10:48:56.436Z,32.64
2018-07-27T10:51:25.085Z,33.06
2018-07-27T10:53:54.288Z,31.63
2018-07-27T10:56:22.987Z,31.08
2018-07-27T10:58:51.563Z,31.40
2018-07-27T11:01:20.333Z,31.69
2018-07-27T11:03:48.919Z,32.18
2018-07-27T11:06:18.239Z,32.82
2018-07-27T11:08:46.976Z,32.89
2018-07-27T11:11:15.713Z,33.88
2018-07-27T11:13:45.293Z,32.67
2018-07-27T11:16:13.974Z,32.26
2018-07-27T11:18:42.710Z,33.39
2018-07-27T11:21:11.777Z,32.35
2018-07-27T11:23:40.562Z,31.89
2018-07-27T11:26:09.626Z,31.72
2018-07-27T11:28:38.666Z,31.98
2018-07-27T11:31:07.996Z,31.18
2018-07-27T11:33:36.677Z,30.42
2018-07-27T11:36:05.478Z,31.70
2018-07-27T11:38:34.483Z,31.78
2018-07-27T11:41:03.187Z,30.93
2018-07-27T11:43:32.082Z,31.42
2018-07-27T11:46:00.910Z,30.53
2018-07-27T11:48:29.622Z,29.10
2018-07-27T11:50:58.339Z,28.99
2018-07-27T11:53:26.972Z,30.13
2018-07-27T11:55:55.789Z,31.04
2018-07-27T11:58:24.686Z,30.16
2018-07-27T12:00:53.522Z,30.51
2018-07-27T12:03:24.113Z,29.97
2018-07-27T12:05:52.836Z,30.20
2018-07-27T12:08:22.626Z,29.08
2018-07-27T12:10:51.349Z,29.69
2018-07-27T12:13:20.458Z,29.83
2018-07-27T12:15:49.492Z,30.25
2018-07-27T12:18:18.480Z,30.67
2018-07-27T12:23:58.578Z,29.81
2018-07-27T12:26:29.409Z,30.46
2018-07-27T12:28:58.141Z,28.65
2018-07-27T12:31:26.852Z,28.93
2018-07-27T12:33:55.844Z,29.47
2018-07-27T12:36:24.485Z,28.99
2018-07-27T12:38:53.551Z,28.61
2018-07-27T12:41:22.147Z,28.16
2018-07-27T12:43:50.970Z,27.49
2018-07-27T12:46:19.635Z,28.03
2018-07-27T12:48:48.276Z,26.33
2018-07-27T12:51:17.700Z,25.84
2018-07-27T12:53:46.281Z,25.34
2018-07-27T12:56:15.885Z,25.14
2018-07-27T12:58:44.471Z,25.34
2018-07-27T13:01:13.088Z,23.84
2018-07-27T13:03:41.756Z,21.98
2018-07-27T13:06:10.594Z,21.08
2018-07-27T13:08:39.440Z,20.80
2018-07-27T13:11:08.172Z,21.39
2018-07-27T13:13:36.790Z,19.76
2018-07-27T13:16:05.769Z,20.38
2018-07-27T13:18:34.268Z,20.85
2018-07-27T13:21:02.934Z,20.65
2018-07-27T13:23:31.512Z,19.85
2018-07-27T13:28:40.833Z,22.22
2018-07-27T13:31:10.194Z,22.99
2018-07-27T13:33:39.841Z,23.03
2018-07-27T13:36:08.457Z,22.05
2018-07-27T13:38:37.091Z,20.96
2018-07-27T13:41:05.818Z,19.90
2018-07-27T13:43:34.442Z,19.50
2018-07-27T13:46:03.078Z,18.83
2018-07-27T13:48:31.687Z,19.96
2018-07-27T13:51:00.430Z,19.16
2018-07-27T13:53:29.126Z,20.72
2018-07-27T13:55:57.718Z,20.60
2018-07-27T13:58:26.339Z,20.80
2018-07-27T14:00:55.015Z,22.52
2018-07-27T14:03:23.709Z,22.60
2018-07-27T14:05:52.297Z,23.59
2018-07-27T14:08:21.171Z,24.59
2018-07-27T14:10:49.796Z,24.64
2018-07-27T14:13:18.438Z,25.23
2018-07-27T14:15:47.429Z,26.17
2018-07-27T14:18:16.076Z,27.06
2018-07-27T14:20:44.707Z,27.78
2018-07-27T14:23:13.343Z,27.37
2018-07-27T14:25:42.053Z,27.84
2018-07-27T14:28:11.674Z,26.98
2018-07-27T14:30:40.531Z,25.33
2018-07-27T14:33:09.283Z,25.07
2018-07-27T14:35:37.968Z,25.35
2018-07-27T14:38:06.551Z,24.75
2018-07-27T14:40:35.200Z,25.35
2018-07-27T14:43:03.826Z,26.10
2018-07-27T14:45:32.478Z,25.47
2018-07-27T14:48:01.224Z,25.85
2018-07-27T14:50:30.372Z,26.60
2018-07-27T14:52:59.024Z,26.60
2018-07-27T14:55:28.788Z,26.48
2018-07-27T14:57:57.461Z,26.32
2018-07-27T15:00:26.859Z,25.78
2018-07-27T15:02:55.943Z,25.67
2018-07-27T15:05:25.772Z,25.84
2018-07-27T15:07:54.505Z,26.54
2018-07-27T15:10:23.160Z,25.85
2018-07-27T15:12:51.921Z,25.55
2018-07-27T15:15:20.628Z,26.29
2018-07-27T15:17:49.492Z,26.34
2018-07-27T15:20:18.297Z,25.96
2018-07-27T15:22:46.996Z,25.64
2018-07-27T15:25:21.631Z,26.43
2018-07-27T15:27:50.529Z,26.68
2018-07-27T15:30:19.173Z,26.84
2018-07-27T15:32:48.694Z,26.19
2018-07-27T15:35:19.528Z,26.32
2018-07-27T15:37:48.162Z,25.87
2018-07-27T15:40:16.923Z,25.76
2018-07-27T15:42:45.887Z,25.29
2018-07-27T15:45:14.566Z,25.63
2018-07-27T15:47:43.228Z,25.86
2018-07-27T15:50:12.186Z,25.74
2018-07-27T15:52:41.482Z,25.13
2018-07-27T15:55:10.109Z,25.12
2018-07-27T15:57:40.297Z,25.47
2018-07-27T16:00:09.560Z,26.21
2018-07-27T16:02:38.293Z,27.27
2018-07-27T16:05:07.314Z,27.05
2018-07-27T16:07:36.264Z,27.41
2018-07-27T16:10:05.340Z,27.25
2018-07-27T16:12:34.045Z,27.53
2018-07-27T16:15:02.743Z,28.04
2018-07-27T16:17:31.429Z,27.43
2018-07-27T16:20:00.118Z,27.51
2018-07-27T16:22:28.754Z,27.73
2018-07-27T16:24:57.518Z,27.67
2018-07-27T16:27:26.777Z,27.58
2018-07-27T16:29:55.470Z,27.93
2018-07-27T16:32:24.427Z,28.33
2018-07-27T16:34:53.209Z,27.76
2018-07-27T16:37:21.890Z,28.33
2018-07-27T16:39:50.757Z,27.62
2018-07-27T16:42:19.378Z,28.13
2018-07-27T16:44:48.878Z,28.07
2018-07-27T16:47:18.258Z,28.59
2018-07-27T16:49:47.602Z,29.12
2018-07-27T16:52:16.296Z,29.22
2018-07-27T16:54:44.924Z,29.23
2018-07-27T16:57:13.642Z,28.40
2018-07-27T16:59:42.564Z,28.62
2018-07-27T17:02:11.342Z,29.43
2018-07-27T17:04:39.977Z,28.94
2018-07-27T17:07:08.635Z,29.25
2018-07-27T17:09:37.384Z,28.60
2018-07-27T17:12:06.417Z,28.81
2018-07-27T17:14:35.572Z,29.36
2018-07-27T17:17:04.476Z,29.34
2018-07-27T17:19:33.434Z,29.97
2018-07-27T17:22:02.365Z,30.58
2018-07-27T17:24:32.231Z,30.43
2018-07-27T17:27:01.050Z,30.94
2018-07-27T17:29:29.832Z,30.95
2018-07-27T17:31:58.551Z,30.98
2018-07-27T17:34:27.760Z,31.70
2018-07-27T17:36:57.709Z,32.10
2018-07-27T17:39:27.204Z,32.38
2018-07-27T17:41:56.237Z,32.05
2018-07-27T17:44:24.987Z,32.98
2018-07-27T17:46:53.701Z,32.12
2018-07-27T17:49:23.397Z,32.38
2018-07-27T17:51:52.458Z,32.56
2018-07-27T17:54:21.192Z,33.36
2018-07-27T17:56:49.828Z,33.67
2018-07-27T17:59:19.224Z,32.98
2018-07-27T18:01:47.979Z,33.26
2018-07-27T18:04:16.925Z,34.17
2018-07-27T18:06:45.668Z,33.56
2018-07-27T18:09:14.623Z,33.89
2018-07-27T18:11:43.297Z,33.58
2018-07-27T18:14:12.036Z,34.33
2018-07-27T18:16:40.769Z,34.08
2018-07-27T18:19:09.438Z,34.39
2018-07-27T18:21:38.544Z,34.57
2018-07-27T18:24:07.580Z,35.41
2018-07-27T18:26:36.502Z,34.51
2018-07-27T18:29:05.219Z,35.17
2018-07-27T18:31:33.912Z,34.50
2018-07-27T18:34:02.604Z,34.58
2018-07-27T18:36:31.298Z,35.10
2018-07-27T18:39:00.143Z,35.07
2018-07-27T18:41:28.761Z,35.28
2018-07-27T18:43:57.474Z,37.82
2018-07-27T18:46:26.182Z,41.24
2018-07-27T18:48:54.841Z,40.07
2018-07-27T18:51:23.556Z,38.37
2018-07-27T18:53:52.297Z,38.72
2018-07-27T18:56:21.043Z,38.77
2018-07-27T18:58:49.773Z,39.14
2018-07-27T19:01:18.555Z,38.56
2018-07-27T19:03:47.196Z,39.32
2018-07-27T19:06:15.854Z,39.08
2018-07-27T19:08:44.584Z,39.77
2018-07-27T19:11:13.479Z,39.92
2018-07-27T19:13:42.240Z,39.36
2018-07-27T19:16:11.500Z,40.22
2018-07-27T19:18:40.392Z,39.57
2018-07-27T19:21:09.433Z,39.83
2018-07-27T19:23:38.434Z,39.80
2018-07-27T19:26:07.108Z,39.09
2018-07-27T19:28:35.810Z,39.78
2018-07-27T19:31:04.613Z,39.79
2018-07-27T19:33:33.308Z,39.50
2018-07-27T19:36:02.177Z,39.90
2018-07-27T19:38:31.043Z,39.45
2018-07-27T19:40:59.744Z,39.87
2018-07-27T19:43:28.487Z,40.00
2018-07-27T19:45:57.503Z,39.70
2018-07-27T19:48:26.333Z,39.55
2018-07-27T19:50:56.000Z,40.38
2018-07-27T19:53:24.935Z,40.74
2018-07-27T19:55:53.628Z,40.67
2018-07-27T19:58:22.302Z,40.15
2018-07-27T20:00:51.386Z,40.58
2018-07-27T20:03:20.090Z,40.46
2018-07-27T20:05:49.170Z,40.60
2018-07-27T20:08:17.844Z,41.81
2018-07-27T20:10:46.646Z,41.39
2018-07-27T20:13:15.263Z,41.49
2018-07-27T20:15:44.544Z,41.46
2018-07-27T20:18:13.219Z,42.01
2018-07-27T20:20:41.954Z,42.01
2018-07-27T20:23:10.696Z,42.04
2018-07-27T20:25:40.198Z,42.58
2018-07-27T20:28:08.940Z,42.79
2018-07-27T20:30:37.619Z,42.72
2018-07-27T20:33:06.376Z,42.47
2018-07-27T20:35:35.387Z,41.45
2018-07-27T20:38:04.111Z,43.38
2018-07-27T20:40:32.820Z,43.04
2018-07-27T20:43:02.745Z,42.47
2018-07-27T20:45:31.461Z,43.61
2018-07-27T20:48:00.086Z,42.76
2018-07-27T20:50:28.787Z,42.87
2018-07-27T20:52:57.923Z,42.97
2018-07-27T20:55:26.645Z,41.98
2018-07-27T20:57:56.491Z,42.32
2018-07-27T21:00:25.412Z,42.73
2018-07-27T21:02:54.156Z,42.34
2018-07-27T21:05:22.816Z,42.42
2018-07-27T21:07:51.495Z,43.46
2018-07-27T21:10:20.152Z,43.21
2018-07-27T21:12:48.959Z,43.71
2018-07-27T21:15:17.887Z,44.57
2018-07-27T21:17:47.653Z,44.97
2018-07-27T21:20:16.511Z,45.50
2018-07-27T21:22:47.908Z,45.32
2018-07-27T21:25:17.178Z,45.27
2018-07-27T21:27:46.995Z,45.40
2018-07-27T21:30:17.780Z,45.95
2018-07-27T21:32:47.071Z,46.25
2018-07-27T21:35:17.555Z,46.03
2018-07-27T21:37:51.925Z,46.08
2018-07-27T21:40:22.005Z,46.98
2018-07-27T21:42:52.855Z,46.63
2018-07-27T21:45:29.145Z,46.79
2018-07-27T21:47:59.285Z,47.28
2018-07-27T21:50:28.854Z,47.25
2018-07-27T21:53:00.122Z,46.95
2018-07-27T21:55:32.857Z,47.35
2018-07-27T21:58:03.796Z,46.98
2018-07-27T22:00:35.224Z,46.81
2018-07-27T22:03:06.086Z,47.35
2018-07-27T22:05:35.168Z,47.32
2018-07-27T22:08:03.876Z,47.23
2018-07-27T22:10:34.819Z,47.76
2018-07-27T22:13:05.957Z,47.25
2018-07-27T22:15:36.914Z,48.32
2018-07-27T22:18:08.236Z,48.49
2018-07-27T22:20:39.060Z,48.44
2018-07-27T22:23:09.714Z,48.34
2018-07-27T22:25:38.529Z,48.10
2018-07-27T22:28:07.239Z,48.27
2018-07-27T22:30:36.916Z,48.86
2018-07-27T22:33:05.922Z,49.54
2018-07-27T22:35:37.036Z,48.68
2018-07-27T22:38:07.727Z,48.55
2018-07-27T22:40:38.927Z,49.06
2018-07-27T22:43:10.796Z,49.61
2018-07-27T22:45:40.930Z,50.07
2018-07-27T22:48:11.750Z,50.74
2018-07-27T22:50:44.099Z,50.41
2018-07-27T22:53:14.929Z,50.67
2018-07-27T22:55:47.482Z,50.84
2018-07-27T22:58:18.496Z,50.49
2018-07-27T23:00:49.478Z,50.25
2018-07-27T23:03:22.813Z,50.66
2018-07-27T23:05:52.178Z,51.36
2018-07-27T23:08:21.599Z,50.89
2018-07-27T23:10:50.953Z,51.01
2018-07-27T23:13:20.736Z,51.55
2018-07-27T23:15:50.268Z,51.82
2018-07-27T23:18:18.946Z,51.58
2018-07-27T23:20:47.641Z,51.23
2018-07-27T23:23:16.503Z,51.28
2018-07-27T23:25:45.181Z,51.10
2018-07-27T23:28:13.832Z,51.51
2018-07-27T23:30:42.491Z,51.58
2018-07-27T23:33:11.113Z,51.79
2018-07-27T23:35:39.794Z,51.92
2018-07-27T23:38:08.403Z,51.86
2018-07-27T23:40:37.004Z,51.69
2018-07-27T23:43:05.970Z,52.12
2018-07-27T23:45:34.619Z,52.11
2018-07-27T23:48:03.353Z,51.69
2018-07-27T23:50:31.975Z,52.13
2018-07-27T23:53:00.574Z,52.19
2018-07-27T23:55:29.647Z,52.78
2018-07-27T23:57:58.335Z,52.87
